aviador You're here:

SBRF Decoded Metar

RECIFE in BRAZIL
Report Time2018-07-22 16:00:00
UTC Time2018-07-22 16:21:10
Flight Rules vfr VFR
Wind160° at 16 kt
W.Decomp.*RWY 18: 16.0 kt HW 0.6 kt RCW
W.Rank160° ranks 7
Current wind is above 160° avg. (10.9)
Visibility9999 m
Phenomena:Vicinity showers
Clouds:Scattered 025 Hf
Expected CloudBase > 2,800 ft AGL from Temp-Dew spread
CeilingNone
Temp27°C (ISA +12)
Dew Point20°C (66% RH)
Heat Index28.5°C
AAT25.0°C
QNH1015 hPa
Density Alt1,703 ft
Elevation62 ft
Report Wrong Elevation
Raw Report
METAR SBRF 221600Z 16016KT 9999 VCSH SCT025 27/20 Q1015=

Extra information for SBRF:More info

Metar Taf Metar & Taf Last 4 Metars F.Rules Stats Wind Profile Meteogram Temp Stats Airport Information Weather charts Add Link Nearby VenuesMetar ALERT Operation Metar Decoded Social comments